Smoke Signal, Arizona
Current Conditions -  °F | °C
As of 7:53 AM on Monday 22 Dec 2014 (Local Time) from KRQE Reporting Station
Clear Clear  
Wind Chill: -2°   Ceiling: Unl
Heat Index: -2°   Visibility: 10mi
Dew Point: -4°   Wind: 3mph
Humidity: 82%   Direction: 110°ESE
Pressure: 30.01"   Gusts: NA
Location:  36.1012°N, 109.584°W
Report Text: KRQE 221453Z AUTO 11003KT 10SM CLR M02/M04 A3001 RMK AO2 SLP139 T10171044 51003 TSNO
Loading
Personal Weather Stations






























Interactive Weather Map New forecast layout! Learn more

10-Day Weather Forecast

Advertisements
Track Severe Weather on mobile